Accueil
METAR-TAF:

METAR-TAF

Aéroports :

Wiener Neustadt, Autriche

latitude: 47-50-36N, longitude: 016-15-29E, altitude: 272 m

Observation

Le bulletin a été fait il y a 14 heures et 13 minutes, à 16:00 UTC
Vent 14 kt de nord/nord-ouest
Température
Pression
Visibilité: 8000 m

METAR: LOAN 231600Z 33014KT 8000 FEW010CU SCT018SC BKN030SC

Heure: 07:13 (06:13 UTC)

Prévision

Le bulletin a été fait il y a 18 heures et 48 minutes, à 11:25 UTC
Prévision valable du 23 à 12 UTC au 23 à 21 UTC
Vent 8 kt de ouest/nord-ouest
Visibilité: 6000 m
Nuages fragmentés à une hauteur de 2000 ft
pluie faible
Temporairement
du 23 à 15 UTC au 23 à 21 UTC
Visibilité: 3500 m
à une hauteur de 500 ft
pluie, neige

TAF: LOAN 231125Z 2312/2321 30008KT 6000 -RA BKN020 TEMPO 2315/2321 3500 RASN VV005

Observations et prévisions météorologiques de plus de 4000 aéroports (messages METAR et TAF).

Les stations disponibles sont représentées par des disques jaunes et rouges sur la carte.

Passer la souris dessus pour voir le nom de la station.

Cliquer dessus pour voir les observations et prévisions météorologiques.

Pour changer de carte: cliquez sur les boutons verts avec une croix noire pour zoomer, sur le bouton vert avec un tiret pour effectuer un zoom arrière, ou sur les flèches vertes pour les cartes adjacentes.


METAR-TAF: